createdAt,value
2024-02-29T00:00:21.066Z,24.07
2024-02-29T00:02:49.416Z,22.00
2024-02-29T00:05:19.032Z,23.07
2024-02-29T00:07:47.834Z,24.43
2024-02-29T00:10:17.146Z,25.20
2024-02-29T00:12:45.094Z,24.93
2024-02-29T00:15:13.118Z,24.83
2024-02-29T00:17:42.073Z,24.90
2024-02-29T00:20:12.137Z,23.30
2024-02-29T00:22:40.127Z,22.13
2024-02-29T00:25:09.231Z,23.00
2024-02-29T00:27:38.378Z,22.50
2024-02-29T00:30:07.601Z,24.60
2024-02-29T00:32:36.351Z,23.20
2024-02-29T00:35:05.904Z,24.10
2024-02-29T00:37:33.599Z,23.43
2024-02-29T00:40:02.167Z,24.20
2024-02-29T00:42:30.102Z,26.87
2024-02-29T00:44:59.692Z,26.43
2024-02-29T00:47:27.456Z,25.37
2024-02-29T00:49:55.357Z,23.90
2024-02-29T00:52:23.093Z,24.30
2024-02-29T00:54:51.248Z,23.63
2024-02-29T00:57:19.206Z,25.50
2024-02-29T00:59:47.317Z,25.10
2024-02-29T01:02:16.498Z,24.77
2024-02-29T01:04:44.333Z,25.70
2024-02-29T01:07:12.751Z,23.70
2024-02-29T01:09:40.679Z,24.90
2024-02-29T01:12:09.010Z,22.23
2024-02-29T01:14:36.725Z,23.00
2024-02-29T01:17:04.874Z,23.30
2024-02-29T01:19:34.066Z,23.87
2024-02-29T01:22:03.649Z,22.83
2024-02-29T01:24:31.645Z,24.17
2024-02-29T01:26:59.393Z,21.37
2024-02-29T01:29:27.212Z,24.30
2024-02-29T01:31:55.391Z,24.60
2024-02-29T01:34:23.144Z,25.97
2024-02-29T01:36:52.339Z,27.73
2024-02-29T01:39:20.066Z,25.37
2024-02-29T01:41:48.190Z,25.73
2024-02-29T01:44:16.138Z,25.17
2024-02-29T01:46:44.375Z,24.97
2024-02-29T01:49:15.141Z,27.43
2024-02-29T01:51:44.260Z,24.03
2024-02-29T01:54:13.669Z,24.70
2024-02-29T01:56:42.207Z,24.17
2024-02-29T01:59:10.325Z,25.70
2024-02-29T02:01:39.395Z,24.70
2024-02-29T02:04:07.775Z,24.33
2024-02-29T02:06:35.651Z,25.23
2024-02-29T02:09:04.032Z,26.37
2024-02-29T02:11:33.176Z,26.70
2024-02-29T02:14:01.264Z,25.50
2024-02-29T02:16:29.365Z,25.50
2024-02-29T02:18:57.890Z,25.90
2024-02-29T02:21:27.042Z,23.77
2024-02-29T02:23:55.020Z,23.93
2024-02-29T02:26:22.770Z,23.97
2024-02-29T02:28:51.777Z,28.10
2024-02-29T02:31:19.500Z,26.17
2024-02-29T02:33:47.739Z,24.43
2024-02-29T02:36:15.554Z,26.90
2024-02-29T02:38:45.248Z,23.67
2024-02-29T02:41:13.328Z,25.47
2024-02-29T02:43:41.457Z,24.63
2024-02-29T02:46:09.238Z,24.90
2024-02-29T02:48:37.515Z,26.30
2024-02-29T02:51:05.961Z,27.17
2024-02-29T02:53:34.204Z,25.00
2024-02-29T02:56:05.011Z,24.43
2024-02-29T02:58:32.905Z,24.07
2024-02-29T03:01:01.951Z,24.17
2024-02-29T03:03:30.754Z,22.83
2024-02-29T03:05:58.803Z,24.50
2024-02-29T03:08:26.809Z,25.00
2024-02-29T03:10:54.769Z,23.43
2024-02-29T03:13:24.098Z,25.40
2024-02-29T03:15:52.282Z,24.90
2024-02-29T03:18:19.994Z,23.60
2024-02-29T03:20:48.165Z,23.63
2024-02-29T03:23:15.930Z,24.23
2024-02-29T03:25:44.111Z,23.40
2024-02-29T03:28:11.851Z,24.47
2024-02-29T03:30:42.266Z,22.70
2024-02-29T03:33:10.097Z,24.50
2024-02-29T03:35:38.165Z,23.83
2024-02-29T03:38:06.323Z,24.20
2024-02-29T03:40:34.573Z,23.73
2024-02-29T03:43:02.538Z,23.90
2024-02-29T03:45:30.483Z,25.97
2024-02-29T03:47:59.747Z,25.10
2024-02-29T03:50:28.058Z,23.50
2024-02-29T03:52:55.888Z,24.50
2024-02-29T03:55:23.836Z,23.30
2024-02-29T03:57:51.682Z,25.37
2024-02-29T04:00:44.931Z,27.27
2024-02-29T04:03:14.094Z,27.17
2024-02-29T04:05:41.983Z,25.60
2024-02-29T04:08:13.080Z,25.77
2024-02-29T04:10:43.240Z,24.17
2024-02-29T04:13:11.073Z,27.13
2024-02-29T04:15:39.335Z,23.73
2024-02-29T04:18:07.557Z,25.37
2024-02-29T04:20:36.814Z,23.27
2024-02-29T04:23:04.562Z,24.90
2024-02-29T04:25:32.801Z,24.63
2024-02-29T04:28:00.952Z,24.50
2024-02-29T04:30:28.858Z,25.40
2024-02-29T04:32:57.328Z,26.47
2024-02-29T04:35:25.243Z,24.03
2024-02-29T04:37:54.851Z,24.10
2024-02-29T04:40:22.705Z,25.00
2024-02-29T04:42:50.950Z,24.03
2024-02-29T04:45:18.950Z,24.60
2024-02-29T04:47:46.771Z,25.47
2024-02-29T04:50:15.132Z,25.87
2024-02-29T04:52:42.896Z,23.93
2024-02-29T04:55:12.861Z,27.87
2024-02-29T04:57:40.736Z,25.90
2024-02-29T05:00:11.484Z,26.77
2024-02-29T05:02:39.491Z,26.93
2024-02-29T05:05:07.942Z,28.10
2024-02-29T05:07:35.837Z,28.20
2024-02-29T05:10:04.251Z,28.60
2024-02-29T05:12:33.458Z,29.10
2024-02-29T05:15:01.752Z,30.60
2024-02-29T05:17:29.646Z,28.80
2024-02-29T05:19:58.443Z,28.43
2024-02-29T05:22:27.249Z,28.37
2024-02-29T05:24:55.247Z,27.97
2024-02-29T05:27:23.059Z,26.40
2024-02-29T05:29:52.401Z,28.47
2024-02-29T05:32:20.193Z,27.30
2024-02-29T05:34:48.458Z,26.63
2024-02-29T05:37:16.535Z,24.40
2024-02-29T05:39:44.334Z,30.20
2024-02-29T05:42:12.750Z,27.00
2024-02-29T05:44:40.739Z,26.40
2024-02-29T05:47:10.539Z,28.00
2024-02-29T05:49:38.420Z,27.07
2024-02-29T05:52:07.611Z,27.53
2024-02-29T05:54:35.444Z,24.87
2024-02-29T05:57:06.000Z,27.53
2024-02-29T05:59:34.293Z,30.47
2024-02-29T06:02:02.565Z,26.90
2024-02-29T06:04:32.122Z,26.63
2024-02-29T06:07:00.081Z,28.27
2024-02-29T06:09:28.316Z,26.27
2024-02-29T06:11:56.153Z,25.90
2024-02-29T06:14:25.681Z,30.43
2024-02-29T06:16:53.509Z,29.27
2024-02-29T06:19:21.410Z,31.53
2024-02-29T06:21:50.509Z,27.80
2024-02-29T06:24:20.186Z,27.47
2024-02-29T06:26:48.549Z,27.60
2024-02-29T06:29:16.644Z,25.83
2024-02-29T06:31:44.548Z,28.77
2024-02-29T06:34:12.636Z,28.60
2024-02-29T06:36:41.285Z,26.27
2024-02-29T06:39:11.693Z,27.23
2024-02-29T06:41:39.702Z,26.17
2024-02-29T06:44:08.633Z,23.23
2024-02-29T06:46:36.392Z,24.60
2024-02-29T06:49:05.631Z,22.73
2024-02-29T06:51:34.674Z,25.03
2024-02-29T06:54:02.770Z,23.70
2024-02-29T06:56:31.875Z,23.37
2024-02-29T06:58:59.855Z,22.13
2024-02-29T07:01:28.065Z,21.60
2024-02-29T07:03:56.839Z,23.27
2024-02-29T07:06:24.585Z,21.33
2024-02-29T07:08:53.786Z,21.80
2024-02-29T07:11:21.875Z,22.80
2024-02-29T07:13:52.186Z,21.40
2024-02-29T07:16:21.650Z,22.10
2024-02-29T07:18:49.849Z,25.00
2024-02-29T07:21:18.003Z,21.70
2024-02-29T07:23:45.724Z,20.57
2024-02-29T07:26:13.819Z,20.40
2024-02-29T07:28:41.566Z,22.17
2024-02-29T07:31:11.133Z,22.80
2024-02-29T07:33:39.130Z,24.70
2024-02-29T07:36:07.635Z,22.90
2024-02-29T07:38:35.461Z,23.80
2024-02-29T07:41:03.932Z,23.30
2024-02-29T07:43:31.795Z,24.97
2024-02-29T07:46:00.492Z,23.67
2024-02-29T07:48:30.729Z,23.43
2024-02-29T07:50:58.915Z,24.30
2024-02-29T07:53:26.725Z,24.80
2024-02-29T07:55:54.728Z,23.23
2024-02-29T07:58:22.758Z,24.90
2024-02-29T08:00:50.815Z,25.37
2024-02-29T08:03:19.022Z,24.17
2024-02-29T08:05:49.368Z,24.43
2024-02-29T08:08:17.669Z,24.57
2024-02-29T08:10:45.656Z,25.73
2024-02-29T08:13:13.896Z,28.30
2024-02-29T08:15:41.794Z,27.93
2024-02-29T08:18:10.077Z,25.43
2024-02-29T08:20:39.586Z,27.20
2024-02-29T08:23:09.402Z,27.33
2024-02-29T08:25:36.173Z,29.37
2024-02-29T08:28:04.255Z,25.37
2024-02-29T08:30:32.441Z,24.50
2024-02-29T08:33:00.262Z,25.10
2024-02-29T08:35:28.234Z,27.80
2024-02-29T08:37:57.912Z,27.47
2024-02-29T08:40:29.644Z,26.90
2024-02-29T08:42:57.428Z,26.70
2024-02-29T08:45:25.730Z,27.83
2024-02-29T08:47:53.484Z,24.83
2024-02-29T08:50:21.708Z,24.90
2024-02-29T08:52:49.629Z,24.23
2024-02-29T08:55:17.993Z,24.67
2024-02-29T08:57:47.410Z,25.83
2024-02-29T09:00:17.392Z,25.10
2024-02-29T09:02:46.074Z,26.20
2024-02-29T09:05:13.827Z,26.60
2024-02-29T09:07:41.773Z,25.30
2024-02-29T09:10:10.817Z,25.67
2024-02-29T09:12:39.084Z,22.73
2024-02-29T09:15:09.397Z,25.20
2024-02-29T09:17:37.550Z,25.03
2024-02-29T09:20:07.605Z,26.47
2024-02-29T09:22:35.853Z,25.90
2024-02-29T09:25:04.246Z,24.73
2024-02-29T09:27:32.776Z,25.27
2024-02-29T09:30:00.779Z,24.63
2024-02-29T09:32:29.909Z,25.37
2024-02-29T09:34:58.211Z,23.20
2024-02-29T09:37:26.309Z,25.27
2024-02-29T09:39:54.155Z,24.50
2024-02-29T09:42:22.194Z,25.27
2024-02-29T09:44:51.365Z,25.27
2024-02-29T09:47:22.127Z,25.27
2024-02-29T09:49:56.921Z,27.00
2024-02-29T09:52:31.923Z,26.47
2024-02-29T09:55:05.411Z,26.13
2024-02-29T09:57:35.266Z,27.20
2024-02-29T10:00:04.131Z,23.90
2024-02-29T10:02:35.533Z,24.33
2024-02-29T10:05:06.159Z,25.63
2024-02-29T10:07:33.952Z,25.73
2024-02-29T10:10:02.544Z,24.13
2024-02-29T10:12:30.298Z,26.47
2024-02-29T10:15:00.910Z,24.17
2024-02-29T10:17:29.185Z,23.47
2024-02-29T10:19:57.160Z,25.20
2024-02-29T10:22:26.452Z,26.70
2024-02-29T10:24:56.060Z,24.03
2024-02-29T10:27:24.739Z,26.47
2024-02-29T10:29:52.628Z,26.23
2024-02-29T10:32:20.540Z,27.50
2024-02-29T10:34:49.300Z,24.30
2024-02-29T10:37:17.961Z,26.10
2024-02-29T10:39:47.597Z,25.70
2024-02-29T10:42:16.949Z,26.00
2024-02-29T10:44:47.743Z,24.77
2024-02-29T10:47:18.131Z,24.93
2024-02-29T10:49:48.749Z,23.80
2024-02-29T10:52:27.401Z,24.10
2024-02-29T10:55:07.249Z,25.67
2024-02-29T10:57:41.331Z,25.00
2024-02-29T11:00:12.827Z,23.70
2024-02-29T11:02:40.930Z,24.20
2024-02-29T11:05:09.608Z,22.90
2024-02-29T11:07:37.478Z,22.57
2024-02-29T11:10:08.805Z,23.13
2024-02-29T11:12:41.633Z,24.37
2024-02-29T11:15:13.385Z,22.20
2024-02-29T11:17:43.075Z,24.67
2024-02-29T11:20:21.127Z,25.50
2024-02-29T11:22:49.983Z,23.10
2024-02-29T11:25:23.268Z,23.30
2024-02-29T11:27:53.285Z,22.63
2024-02-29T11:30:24.277Z,21.67
2024-02-29T11:32:53.338Z,21.93
2024-02-29T11:35:21.282Z,21.87
2024-02-29T11:37:50.054Z,20.93
2024-02-29T11:40:18.219Z,20.73
2024-02-29T11:42:48.307Z,18.00
2024-02-29T11:45:23.611Z,20.70
2024-02-29T11:47:52.017Z,17.33
2024-02-29T11:50:19.805Z,18.97
2024-02-29T11:52:47.708Z,21.10
2024-02-29T11:55:16.150Z,13.80
2024-02-29T11:57:44.294Z,17.10
2024-02-29T12:00:14.853Z,14.17
2024-02-29T12:02:45.240Z,11.20
2024-02-29T12:05:13.841Z,10.30
2024-02-29T12:07:41.665Z,9.43
2024-02-29T12:10:15.337Z,8.20
2024-02-29T12:12:44.395Z,10.27
2024-02-29T12:15:14.676Z,10.57
2024-02-29T12:17:42.435Z,10.37
2024-02-29T12:20:13.651Z,9.90
2024-02-29T12:22:41.418Z,6.50
2024-02-29T12:25:14.044Z,8.37
2024-02-29T12:27:43.660Z,7.30
2024-02-29T12:30:14.807Z,7.53
2024-02-29T12:32:44.410Z,7.40
2024-02-29T12:35:14.701Z,6.60
2024-02-29T12:37:43.514Z,8.30
2024-02-29T12:40:13.850Z,8.07
2024-02-29T12:42:42.714Z,8.40
2024-02-29T12:45:16.037Z,8.10
2024-02-29T12:47:46.223Z,8.90
2024-02-29T12:50:14.217Z,9.43
2024-02-29T12:52:41.956Z,9.63
2024-02-29T12:55:11.300Z,9.73
2024-02-29T12:57:39.238Z,9.50
2024-02-29T13:00:09.226Z,9.67
2024-02-29T13:02:38.332Z,10.03
2024-02-29T13:05:07.135Z,11.70
2024-02-29T13:07:34.973Z,11.30
2024-02-29T13:10:03.461Z,11.93
2024-02-29T13:12:31.173Z,10.63
2024-02-29T13:14:59.087Z,9.40
2024-02-29T13:17:26.932Z,9.00
2024-02-29T13:19:56.416Z,10.23
2024-02-29T13:22:24.126Z,10.13
2024-02-29T13:24:52.158Z,11.27
2024-02-29T13:27:20.231Z,11.37
2024-02-29T13:29:48.694Z,12.13
2024-02-29T13:32:16.412Z,11.23
2024-02-29T13:34:44.909Z,11.43
2024-02-29T13:37:15.016Z,13.40
2024-02-29T13:39:44.296Z,13.00
2024-02-29T13:42:12.555Z,12.27
2024-02-29T13:44:43.126Z,12.73
2024-02-29T13:47:13.861Z,13.10
2024-02-29T13:49:41.832Z,13.40
2024-02-29T13:52:10.266Z,14.20
2024-02-29T13:54:39.399Z,13.57
2024-02-29T13:57:08.520Z,11.70
2024-02-29T13:59:36.609Z,14.53
2024-02-29T14:02:04.911Z,12.50
2024-02-29T14:04:32.823Z,12.77
2024-02-29T14:07:01.120Z,11.83
2024-02-29T14:09:28.909Z,13.20
2024-02-29T14:11:58.324Z,12.70
2024-02-29T14:14:26.116Z,14.20
2024-02-29T14:16:53.982Z,13.60
2024-02-29T14:19:21.776Z,14.03
2024-02-29T14:21:49.636Z,13.50
2024-02-29T14:24:17.669Z,12.90
2024-02-29T14:26:45.784Z,14.00
2024-02-29T14:29:15.152Z,14.73
2024-02-29T14:31:42.900Z,14.60
2024-02-29T14:34:11.281Z,11.50
2024-02-29T14:36:39.821Z,13.40
2024-02-29T14:39:14.806Z,11.90
2024-02-29T14:41:44.624Z,13.07
2024-02-29T14:44:13.317Z,13.73
2024-02-29T14:46:43.064Z,13.00
2024-02-29T14:49:11.001Z,14.47
2024-02-29T14:51:39.254Z,12.20
2024-02-29T14:54:08.926Z,15.53
2024-02-29T14:56:37.822Z,15.27
2024-02-29T14:59:05.629Z,14.33
2024-02-29T15:01:33.967Z,13.57
2024-02-29T15:04:03.248Z,14.47
2024-02-29T15:06:31.718Z,15.43
2024-02-29T15:08:59.491Z,16.37
2024-02-29T15:11:27.936Z,16.53
2024-02-29T15:13:56.039Z,14.67
2024-02-29T15:16:23.947Z,15.67
2024-02-29T15:18:52.061Z,16.73
2024-02-29T15:21:21.746Z,16.70
2024-02-29T15:23:49.866Z,17.50
2024-02-29T15:26:17.680Z,18.57
2024-02-29T15:28:49.598Z,17.07
2024-02-29T15:31:17.572Z,21.50
2024-02-29T15:33:46.216Z,19.10
2024-02-29T15:36:14.367Z,18.77
2024-02-29T15:38:44.186Z,19.70
2024-02-29T15:41:12.151Z,17.80
2024-02-29T15:43:40.140Z,18.37
2024-02-29T15:46:08.085Z,17.90
2024-02-29T15:48:36.454Z,18.63
2024-02-29T15:51:04.265Z,18.27
2024-02-29T15:53:32.323Z,18.50
2024-02-29T15:56:04.777Z,17.03
2024-02-29T15:58:33.124Z,18.70
2024-02-29T16:01:01.455Z,18.90
2024-02-29T16:03:29.193Z,17.80
2024-02-29T16:05:57.161Z,17.50
2024-02-29T16:08:24.964Z,18.77
2024-02-29T16:10:53.282Z,18.17
2024-02-29T16:13:22.471Z,18.13
2024-02-29T16:15:50.459Z,18.23
2024-02-29T16:18:18.304Z,18.27
2024-02-29T16:20:46.029Z,18.23
2024-02-29T16:23:14.559Z,16.77
2024-02-29T16:25:43.674Z,16.10
2024-02-29T16:28:13.699Z,17.13
2024-02-29T16:30:42.736Z,16.77
2024-02-29T16:33:11.011Z,17.37
2024-02-29T16:35:39.142Z,16.00
2024-02-29T16:38:06.884Z,17.27
2024-02-29T16:40:37.498Z,16.67
2024-02-29T16:43:05.771Z,17.70
2024-02-29T16:45:34.645Z,18.50
2024-02-29T16:48:04.554Z,16.97
2024-02-29T16:50:32.609Z,16.40
2024-02-29T16:53:00.396Z,17.60
2024-02-29T16:55:28.209Z,18.57
2024-02-29T16:57:56.587Z,16.40
2024-02-29T17:00:24.747Z,17.27
2024-02-29T17:02:52.823Z,16.00
2024-02-29T17:05:21.881Z,18.77
2024-02-29T17:07:50.289Z,16.87
2024-02-29T17:10:18.087Z,16.90
2024-02-29T17:12:45.813Z,17.10
2024-02-29T17:15:13.592Z,18.07
2024-02-29T17:17:41.473Z,17.80
2024-02-29T17:20:10.160Z,18.70
2024-02-29T17:22:40.238Z,17.67
2024-02-29T17:25:18.511Z,17.90
2024-02-29T17:27:46.451Z,19.20
2024-02-29T17:30:16.693Z,17.17
2024-02-29T17:32:44.747Z,18.03
2024-02-29T17:35:12.843Z,19.33
2024-02-29T17:37:41.956Z,18.47
2024-02-29T17:40:10.830Z,18.50
2024-02-29T17:42:38.596Z,18.30
2024-02-29T17:45:07.663Z,20.17
2024-02-29T17:47:35.761Z,20.77
2024-02-29T17:50:03.500Z,19.80
2024-02-29T17:52:31.481Z,21.00
2024-02-29T17:55:00.712Z,19.03
2024-02-29T17:57:28.753Z,20.90
2024-02-29T17:59:57.190Z,18.33
2024-02-29T18:02:25.100Z,18.87
2024-02-29T18:04:54.775Z,18.97
2024-02-29T18:07:22.481Z,19.37
2024-02-29T18:09:51.155Z,18.47
2024-02-29T18:15:58.667Z,19.73
2024-02-29T18:18:26.446Z,17.67
2024-02-29T18:20:54.347Z,19.77
2024-02-29T18:23:22.181Z,18.43
2024-02-29T18:25:50.946Z,18.07
2024-02-29T18:28:20.438Z,17.00
2024-02-29T18:30:51.225Z,17.70
2024-02-29T18:33:19.610Z,19.00
2024-02-29T18:35:48.750Z,18.70
2024-02-29T18:38:17.552Z,23.60
2024-02-29T18:40:45.442Z,19.03
2024-02-29T18:43:16.121Z,19.67
2024-02-29T18:45:53.331Z,17.80
2024-02-29T18:48:32.639Z,19.63
2024-02-29T18:51:00.611Z,20.20
2024-02-29T18:53:29.649Z,18.50
2024-02-29T18:55:58.429Z,19.50
2024-02-29T18:58:26.372Z,17.43
2024-02-29T19:00:55.812Z,19.47
2024-02-29T19:03:24.075Z,18.00
2024-02-29T19:05:52.969Z,18.80
2024-02-29T19:08:23.555Z,20.13
2024-02-29T19:10:51.614Z,21.10
2024-02-29T19:13:20.460Z,20.23
2024-02-29T19:15:52.000Z,21.33
2024-02-29T19:18:24.815Z,19.37
2024-02-29T19:20:52.847Z,22.23
2024-02-29T19:23:21.067Z,23.20
2024-02-29T19:25:50.171Z,24.30
2024-02-29T19:28:18.498Z,23.50
2024-02-29T19:30:46.670Z,23.27
2024-02-29T19:33:14.790Z,22.50
2024-02-29T19:35:45.994Z,22.20
2024-02-29T19:38:14.156Z,21.30
2024-02-29T19:40:44.412Z,23.43
2024-02-29T19:43:12.682Z,24.67
2024-02-29T19:45:42.487Z,23.23
2024-02-29T19:48:12.395Z,23.60
2024-02-29T19:50:40.304Z,21.90
2024-02-29T19:53:10.245Z,26.63
2024-02-29T19:55:39.562Z,28.67
2024-02-29T19:58:08.306Z,28.83
2024-02-29T20:00:36.165Z,28.90
2024-02-29T20:03:04.584Z,29.43
2024-02-29T20:05:32.326Z,33.87
2024-02-29T20:08:00.278Z,47.90
2024-02-29T20:10:30.768Z,39.10
2024-02-29T20:12:59.138Z,32.90
2024-02-29T20:15:28.508Z,25.13
2024-02-29T20:17:56.410Z,24.23
2024-02-29T20:20:24.562Z,24.47
2024-02-29T20:22:59.552Z,24.03
2024-02-29T20:25:30.141Z,23.40
2024-02-29T20:27:59.185Z,29.60
2024-02-29T20:30:28.055Z,33.03
2024-02-29T20:32:56.321Z,39.50
2024-02-29T20:35:24.094Z,37.73
2024-02-29T20:37:52.391Z,38.00
2024-02-29T20:40:20.274Z,33.23
2024-02-29T20:42:49.814Z,27.70
2024-02-29T20:45:17.890Z,27.07
2024-02-29T20:47:47.413Z,28.10
2024-02-29T20:50:15.248Z,26.80
2024-02-29T20:52:45.517Z,27.17
2024-02-29T20:55:14.229Z,25.67
2024-02-29T20:57:43.093Z,24.93
2024-02-29T21:00:14.123Z,26.13
2024-02-29T21:02:42.033Z,24.60
2024-02-29T21:05:12.406Z,27.07
2024-02-29T21:07:43.215Z,26.37
2024-02-29T21:10:14.085Z,24.80
2024-02-29T21:12:43.034Z,26.17
2024-02-29T21:15:12.868Z,26.37
2024-02-29T21:17:41.804Z,24.97
2024-02-29T21:20:14.002Z,29.27
2024-02-29T21:22:44.943Z,29.97
2024-02-29T21:25:14.967Z,28.80
2024-02-29T21:27:43.393Z,28.07
2024-02-29T21:30:15.542Z,26.20
2024-02-29T21:32:43.561Z,25.33
2024-02-29T21:35:12.158Z,24.17
2024-02-29T21:37:40.138Z,24.37
2024-02-29T21:40:09.680Z,25.60
2024-02-29T21:42:37.725Z,25.53
2024-02-29T21:45:06.474Z,28.03
2024-02-29T21:47:35.873Z,24.57
2024-02-29T21:50:04.357Z,25.30
2024-02-29T21:52:32.748Z,26.13
2024-02-29T21:55:00.573Z,25.17
2024-02-29T21:57:28.296Z,25.30
2024-02-29T21:59:56.252Z,25.90
2024-02-29T22:02:23.937Z,28.03
2024-02-29T22:04:53.218Z,26.53
2024-02-29T22:07:21.237Z,26.43
2024-02-29T22:09:50.537Z,25.77
2024-02-29T22:12:18.963Z,24.90
2024-02-29T22:14:47.243Z,25.93
2024-02-29T22:17:14.998Z,26.37
2024-02-29T22:19:42.988Z,24.77
2024-02-29T22:22:12.369Z,24.07
2024-02-29T22:24:41.842Z,27.30
2024-02-29T22:27:10.289Z,23.40
2024-02-29T22:29:38.173Z,25.50
2024-02-29T22:32:06.827Z,25.40
2024-02-29T22:34:34.685Z,25.57
2024-02-29T22:37:04.443Z,24.87
2024-02-29T22:39:33.760Z,25.30
2024-02-29T22:42:03.030Z,25.00
2024-02-29T22:44:31.153Z,26.20
2024-02-29T22:46:59.069Z,25.83
2024-02-29T22:49:26.985Z,24.13
2024-02-29T22:51:55.244Z,25.50
2024-02-29T22:54:23.577Z,25.17
2024-02-29T22:56:52.673Z,25.97
2024-02-29T22:59:20.686Z,25.83
2024-02-29T23:01:48.628Z,24.47
2024-02-29T23:04:17.121Z,22.70
2024-02-29T23:06:45.295Z,24.53
2024-02-29T23:09:13.306Z,23.23
2024-02-29T23:11:41.583Z,24.37
2024-02-29T23:14:10.970Z,24.50
2024-02-29T23:16:38.724Z,26.07
2024-02-29T23:19:07.351Z,24.53
2024-02-29T23:21:35.229Z,25.80
2024-02-29T23:24:03.309Z,25.57
2024-02-29T23:26:31.012Z,27.90
2024-02-29T23:28:59.182Z,27.20
2024-02-29T23:31:28.545Z,25.83
2024-02-29T23:33:56.817Z,24.83
2024-02-29T23:36:24.580Z,25.47
2024-02-29T23:38:52.262Z,24.50
2024-02-29T23:41:20.417Z,26.97
2024-02-29T23:43:48.165Z,26.90
2024-02-29T23:46:16.112Z,24.20
2024-02-29T23:48:45.233Z,25.20
2024-02-29T23:51:12.999Z,26.83
2024-02-29T23:53:41.167Z,23.83
2024-02-29T23:56:09.096Z,26.37
2024-02-29T23:58:37.532Z,24.30
